Time;durP1;ratioP1;P1;durP2;ratioP2;P2;SDS_P1;SDS_P2;PMS_P1;PMS_P2;Temp;Humidity;BMP_temperature;BMP_pressure;BME280_temperature;BME280_humidity;BME280_pressure;Samples;Min_cycle;Max_cycle;Signal;HPM_P1;HPM_P2
2023/01/27 00:00:12;;;;;;;21.27;10.70;;;;;;;0.18;77.90;93055.00;5005046;28;20122;-86
2023/01/27 00:02:39;;;;;;;16.52;9.70;;;;;;;0.15;77.79;93063.38;5004898;28;20026;-87
2023/01/27 00:05:05;;;;;;;20.48;10.10;;;;;;;0.15;78.11;93058.13;5003969;28;20033;-86
2023/01/27 00:07:31;;;;;;;17.92;9.88;;;;;;;0.11;78.18;93051.09;5004261;28;20038;-86
2023/01/27 00:09:57;;;;;;;18.48;10.20;;;;;;;0.03;78.06;93057.66;5003696;28;20297;-87
2023/01/27 00:15:10;;;;;;;17.35;9.52;;;;;;;-0.06;78.03;93059.25;5003983;28;20065;-87
2023/01/27 00:17:35;;;;;;;17.00;9.77;;;;;;;-0.14;78.34;93051.94;5004695;28;20021;-87
2023/01/27 00:20:02;;;;;;;20.20;9.90;;;;;;;-0.17;78.63;93039.38;5004672;28;20030;-87
2023/01/27 00:25:12;;;;;;;18.20;9.85;;;;;;;-0.31;79.07;93028.66;5004902;28;20452;-89
2023/01/27 00:27:37;;;;;;;16.17;9.68;;;;;;;-0.31;79.12;93026.06;5003913;28;20022;-89
2023/01/27 00:30:04;;;;;;;21.77;11.77;;;;;;;-0.28;79.42;93022.91;5005178;28;20022;-90
2023/01/27 00:35:16;;;;;;;20.23;9.35;;;;;;;-0.30;79.32;93036.25;5005000;28;20221;-89
2023/01/27 00:37:43;;;;;;;20.15;9.70;;;;;;;-0.32;79.27;93042.81;5003928;28;20080;-89
2023/01/27 00:40:09;;;;;;;21.90;10.68;;;;;;;-0.33;79.25;93034.16;5004980;28;20086;-90
2023/01/27 00:42:35;;;;;;;17.52;9.77;;;;;;;-0.31;79.05;93024.22;5003751;28;20118;-90
2023/01/27 00:47:47;;;;;;;18.23;8.65;;;;;;;-0.26;78.79;93041.75;5004704;28;20080;-91
2023/01/27 00:50:12;;;;;;;18.42;9.68;;;;;;;-0.27;78.87;93046.19;5003813;28;20022;-91
2023/01/27 00:52:38;;;;;;;18.77;9.52;;;;;;;-0.25;78.44;93038.84;5004858;28;20026;-91
2023/01/27 00:55:05;;;;;;;16.23;9.18;;;;;;;-0.23;78.39;93038.59;5003911;28;20056;-91
2023/01/27 00:57:30;;;;;;;16.98;9.18;;;;;;;-0.23;78.39;93042.00;5005038;28;20022;-92
2023/01/27 00:59:55;;;;;;;17.50;8.98;;;;;;;-0.16;78.61;93035.69;5004772;28;20089;-91
2023/01/27 01:02:21;;;;;;;15.73;9.38;;;;;;;-0.13;78.37;93035.94;5004795;28;20068;-92
2023/01/27 01:04:46;;;;;;;14.48;8.20;;;;;;;-0.14;78.15;93029.16;5004757;28;20090;-92
2023/01/27 01:07:12;;;;;;;15.00;8.82;;;;;;;-0.08;78.16;93035.16;5003679;28;20041;-91
2023/01/27 01:09:38;;;;;;;20.70;9.95;;;;;;;-0.03;77.87;93037.75;5003698;28;20397;-90
2023/01/27 01:12:03;;;;;;;18.85;9.18;;;;;;;0.01;77.92;93033.56;5003477;28;20046;-90
2023/01/27 01:14:29;;;;;;;19.30;9.93;;;;;;;0.06;77.66;93033.56;5003608;28;20033;-91
2023/01/27 01:16:55;;;;;;;13.90;8.57;;;;;;;0.08;77.71;93028.84;5003726;28;20030;-89
2023/01/27 01:19:21;;;;;;;17.70;8.77;;;;;;;0.07;77.72;93029.88;5003911;28;20089;-88
2023/01/27 01:21:46;;;;;;;16.98;8.02;;;;;;;0.14;77.14;93035.63;5003669;28;20046;-88
2023/01/27 01:24:12;;;;;;;16.27;8.57;;;;;;;0.15;77.02;93034.56;5003621;28;20363;-88
2023/01/27 01:26:37;;;;;;;15.93;8.70;;;;;;;0.17;77.37;93023.81;5003567;28;20053;-88
2023/01/27 01:29:03;;;;;;;17.48;8.00;;;;;;;0.18;76.88;93028.78;5003705;28;20057;-88
2023/01/27 01:31:28;;;;;;;13.07;7.28;;;;;;;0.18;77.09;93028.78;5003742;28;20030;-87
2023/01/27 01:33:54;;;;;;;15.38;8.10;;;;;;;0.17;77.18;93037.69;5002586;28;20038;-88
2023/01/27 01:36:20;;;;;;;16.10;7.88;;;;;;;0.14;77.45;93035.63;5003411;28;20034;-87
2023/01/27 01:38:46;;;;;;;16.67;9.05;;;;;;;0.12;77.51;93040.34;5003657;28;20026;-87
2023/01/27 01:41:19;;;;;;;14.80;7.40;;;;;;;0.08;77.36;93046.38;5003563;28;20240;-87
2023/01/27 01:43:44;;;;;;;12.43;7.10;;;;;;;0.04;77.26;93045.34;5003456;28;20018;-87
2023/01/27 01:46:11;;;;;;;16.83;8.23;;;;;;;0.03;77.49;93039.31;5003374;28;20068;-87
2023/01/27 01:48:47;;;;;;;10.75;6.70;;;;;;;0.07;77.63;93034.34;5002343;28;20018;-87
2023/01/27 01:51:20;;;;;;;13.15;7.22;;;;;;;0.06;77.67;93033.56;5003398;28;20050;-87
2023/01/27 01:54:07;;;;;;;13.32;7.47;;;;;;;0.04;77.46;93035.66;5003538;28;20055;-87
2023/01/27 01:56:46;;;;;;;13.70;7.63;;;;;;;-0.02;77.71;93031.47;5007131;28;20348;-87
2023/01/27 01:59:18;;;;;;;13.55;7.15;;;;;;;-0.01;78.08;93028.56;5007086;28;20022;-88
2023/01/27 02:01:43;;;;;;;17.70;8.30;;;;;;;-0.03;77.75;93008.94;5007156;28;20057;-87
2023/01/27 02:04:17;;;;;;;14.10;7.10;;;;;;;-0.11;78.01;93004.25;5006105;28;20034;-88
2023/01/27 02:06:51;;;;;;;12.75;7.97;;;;;;;-0.16;78.04;93005.06;5007162;28;20022;-88
2023/01/27 02:09:20;;;;;;;20.05;8.48;;;;;;;-0.19;78.37;92996.94;5007056;28;20030;-87
2023/01/27 02:11:45;;;;;;;19.42;8.98;;;;;;;-0.24;78.69;92998.53;5007122;28;20027;-87
2023/01/27 02:14:13;;;;;;;14.85;8.90;;;;;;;-0.39;79.51;92985.47;5006983;28;20256;-89
2023/01/27 02:16:39;;;;;;;15.20;8.43;;;;;;;-0.45;79.93;92989.16;5007219;28;20069;-88
2023/01/27 02:19:08;;;;;;;15.73;7.88;;;;;;;-0.63;80.63;92975.59;5006962;28;20030;-88
2023/01/27 02:21:34;;;;;;;15.10;8.10;;;;;;;-0.66;81.00;92976.13;5006725;28;20106;-88
2023/01/27 02:24:09;;;;;;;14.43;7.82;;;;;;;-0.72;81.05;92985.03;5007251;28;20069;-88
2023/01/27 02:26:42;;;;;;;13.52;7.15;;;;;;;-0.77;81.64;92979.00;5006897;28;20054;-88
2023/01/27 02:29:11;;;;;;;15.48;8.18;;;;;;;-0.82;81.65;92977.19;5007028;28;20026;-88
2023/01/27 02:31:37;;;;;;;15.38;8.10;;;;;;;-0.79;81.70;92987.13;5006643;28;20029;-87
2023/01/27 02:34:09;;;;;;;14.35;8.02;;;;;;;-0.81;81.71;92973.53;5006636;28;20062;-87
2023/01/27 02:36:48;;;;;;;14.77;7.40;;;;;;;-0.79;81.83;92976.66;5006686;28;20022;-87
2023/01/27 02:39:17;;;;;;;12.45;7.20;;;;;;;-0.74;82.23;92968.03;5006412;28;20312;-88
2023/01/27 02:41:55;;;;;;;14.68;8.25;;;;;;;-0.66;82.02;92967.47;5006469;28;20025;-85
2023/01/27 02:44:21;;;;;;;18.98;8.65;;;;;;;-0.63;81.76;92980.84;5006221;28;20022;-85
2023/01/27 02:46:46;;;;;;;15.57;7.93;;;;;;;-0.61;81.87;92977.97;5006315;28;20264;-85
2023/01/27 02:49:12;;;;;;;14.48;7.72;;;;;;;-0.61;81.58;92977.97;5005995;28;20026;-85
2023/01/27 02:51:38;;;;;;;17.48;7.82;;;;;;;-0.58;81.87;92987.88;5006129;28;20022;-86
2023/01/27 02:54:03;;;;;;;14.18;7.60;;;;;;;-0.53;81.57;92994.94;5006299;28;20072;-86
2023/01/27 02:56:29;;;;;;;13.05;7.07;;;;;;;-0.52;81.18;92986.03;5006304;28;20042;-87
2023/01/27 02:58:55;;;;;;;12.40;6.50;;;;;;;-0.53;80.87;92987.09;5005941;28;20197;-86
2023/01/27 03:01:20;;;;;;;13.48;6.75;;;;;;;-0.53;80.70;92980.03;5005887;28;20082;-86
2023/01/27 03:03:46;;;;;;;10.75;6.05;;;;;;;-0.48;80.61;92974.00;5004735;28;20046;-87
2023/01/27 03:06:13;;;;;;;16.63;7.78;;;;;;;-0.45;80.59;92976.06;5004751;28;20125;-87
2023/01/27 03:08:39;;;;;;;14.55;6.82;;;;;;;-0.43;80.61;92976.59;5005915;28;20268;-87
2023/01/27 03:11:04;;;;;;;11.55;6.90;;;;;;;-0.44;80.81;92970.56;5005736;28;20030;-87
2023/01/27 03:13:30;;;;;;;13.90;7.55;;;;;;;-0.42;80.32;92962.47;5005719;28;20026;-86
2023/01/27 03:18:46;;;;;;;13.18;7.13;;;;;;;-0.35;80.43;92954.31;5005717;28;20141;-86
2023/01/27 03:21:12;;;;;;;13.63;7.22;;;;;;;-0.33;80.34;92955.59;5004100;28;20049;-86
2023/01/27 03:23:38;;;;;;;14.25;7.95;;;;;;;-0.30;80.25;92951.69;5005668;28;20022;-86
2023/01/27 03:26:08;;;;;;;16.75;7.35;;;;;;;-0.32;80.23;92944.09;5005418;28;20022;-86
2023/01/27 03:28:34;;;;;;;13.10;7.40;;;;;;;-0.31;80.26;92945.66;5005528;28;20022;-87
2023/01/27 03:31:00;;;;;;;11.70;7.18;;;;;;;-0.33;80.00;92947.75;5005633;28;20034;-87
2023/01/27 03:33:25;;;;;;;11.07;6.43;;;;;;;-0.34;79.68;92934.94;5005451;28;20034;-87
2023/01/27 03:46:47;;;;;;;17.25;7.72;;;;;;;-0.48;80.27;92903.31;5005091;28;20057;-86
2023/01/27 03:49:13;;;;;;;14.68;7.88;;;;;;;-0.61;80.50;92905.44;5004954;28;20022;-87
2023/01/27 03:51:38;;;;;;;13.95;7.72;;;;;;;-0.59;81.17;92915.66;5005220;28;20022;-86
2023/01/27 03:54:04;;;;;;;13.18;7.90;;;;;;;-0.63;81.26;92917.25;5005109;28;20042;-87
2023/01/27 03:56:29;;;;;;;16.75;8.13;;;;;;;-0.74;81.52;92910.47;5004815;28;20054;-85
2023/01/27 03:58:55;;;;;;;16.60;7.82;;;;;;;-0.71;81.92;92904.69;5004902;28;20022;-86
2023/01/27 04:01:22;;;;;;;17.38;8.23;;;;;;;-0.73;82.25;92907.59;5004921;28;20014;-86
2023/01/27 04:06:59;;;;;;;15.60;7.70;;;;;;;-0.83;82.20;92939.78;5004782;28;20025;-86
2023/01/27 04:09:30;;;;;;;16.35;8.10;;;;;;;-0.83;82.69;92945.00;5005035;28;20041;-86
2023/01/27 04:11:58;;;;;;;16.70;7.90;;;;;;;-0.77;82.84;92953.66;5004462;28;20041;-86
2023/01/27 04:14:36;;;;;;;18.20;8.25;;;;;;;-0.66;83.06;92970.88;5003425;28;20098;-85
2023/01/27 04:17:04;;;;;;;21.73;9.80;;;;;;;-0.56;82.63;92983.16;5003011;28;20019;-85
2023/01/27 04:19:30;;;;;;;23.50;8.52;;;;;;;-0.49;82.47;92990.75;5004385;28;20029;-85
2023/01/27 04:21:57;;;;;;;12.77;8.52;;;;;;;-0.36;82.44;92977.09;5004366;28;20034;-85
2023/01/27 04:24:23;;;;;;;18.83;8.15;;;;;;;-0.29;81.88;92980.22;5004441;28;20018;-85
2023/01/27 04:26:59;;;;;;;15.68;8.63;;;;;;;-0.26;81.55;92974.44;5004493;28;20025;-85
2023/01/27 04:29:28;;;;;;;13.35;7.30;;;;;;;-0.16;81.26;92988.53;5004639;28;20195;-85
2023/01/27 04:31:54;;;;;;;16.70;7.40;;;;;;;-0.08;80.57;92995.84;5004125;28;20065;-85
2023/01/27 04:34:20;;;;;;;14.77;7.85;;;;;;;-0.01;80.11;93001.59;5004372;28;20026;-85
2023/01/27 04:36:46;;;;;;;17.45;7.80;;;;;;;0.02;79.40;92990.59;5004307;28;20375;-85
2023/01/27 04:39:13;;;;;;;19.83;7.63;;;;;;;0.07;78.74;92984.56;5004157;28;20228;-86
2023/01/27 04:41:39;;;;;;;16.23;8.02;;;;;;;0.07;78.88;92997.66;5003123;28;20026;-86
2023/01/27 04:44:05;;;;;;;19.42;8.10;;;;;;;0.09;78.60;93012.03;5004355;28;20026;-86
2023/01/27 04:46:31;;;;;;;16.70;8.23;;;;;;;0.10;78.80;92999.72;5004473;28;20033;-85
2023/01/27 04:48:57;;;;;;;17.95;7.00;;;;;;;0.07;78.62;92990.56;5004357;28;20080;-85
2023/01/27 04:51:23;;;;;;;18.48;8.48;;;;;;;0.07;78.92;92997.66;5004141;28;20022;-86
2023/01/27 04:53:48;;;;;;;21.27;8.40;;;;;;;0.08;79.09;93010.50;5004412;28;20257;-87
2023/01/27 04:56:19;;;;;;;16.30;8.25;;;;;;;0.17;79.10;93019.34;5004208;28;20022;-86
2023/01/27 04:58:45;;;;;;;13.73;7.10;;;;;;;0.12;78.85;93011.53;5004174;28;20329;-86
2023/01/27 05:01:10;;;;;;;12.27;6.63;;;;;;;0.09;79.18;93000.78;5004187;28;20093;-86
2023/01/27 05:03:36;;;;;;;12.93;7.25;;;;;;;0.09;79.26;93006.81;5004165;28;20065;-88
2023/01/27 05:06:01;;;;;;;13.27;6.63;;;;;;;0.06;79.04;93007.34;5004184;28;20018;-88
2023/01/27 05:08:27;;;;;;;14.90;7.05;;;;;;;0.09;79.13;93006.81;5004036;28;20217;-87
2023/01/27 05:10:52;;;;;;;14.00;7.75;;;;;;;0.07;79.02;93008.91;5003973;28;20018;-87
2023/01/27 05:13:18;;;;;;;13.48;7.18;;;;;;;0.12;78.68;92993.19;5003937;28;20346;-88
2023/01/27 05:15:43;;;;;;;11.32;6.55;;;;;;;0.08;78.67;92993.97;5004219;28;20046;-88
2023/01/27 05:18:09;;;;;;;14.65;7.95;;;;;;;0.04;78.88;93001.59;5003968;28;20025;-88
2023/01/27 05:20:34;;;;;;;16.52;6.88;;;;;;;0.07;79.35;93008.13;5003880;28;20265;-88
2023/01/27 05:25:44;;;;;;;14.15;7.10;;;;;;;0.08;79.68;92996.59;5003747;28;20092;-86
2023/01/27 05:28:10;;;;;;;13.40;6.47;;;;;;;0.03;79.69;92981.69;5003787;28;20026;-86
2023/01/27 05:30:35;;;;;;;13.02;7.00;;;;;;;0.02;79.79;92984.56;5006465;28;20209;-86
2023/01/27 05:33:01;;;;;;;13.35;7.07;;;;;;;-0.09;79.64;92981.19;5007706;28;20045;-87
2023/01/27 05:35:26;;;;;;;14.10;7.55;;;;;;;-0.10;80.04;92972.56;5007794;28;20018;-86
2023/01/27 05:37:52;;;;;;;12.60;7.63;;;;;;;-0.12;80.14;92981.72;5007686;28;20018;-87
2023/01/27 05:40:17;;;;;;;12.57;7.70;;;;;;;-0.13;80.55;92977.56;5007684;28;20383;-90
2023/01/27 05:42:43;;;;;;;14.85;7.57;;;;;;;-0.17;80.68;92972.06;5007937;28;20041;-90
2023/01/27 05:45:08;;;;;;;16.17;8.40;;;;;;;-0.20;80.61;92967.38;5008386;28;20018;-90
2023/01/27 05:47:34;;;;;;;16.73;7.50;;;;;;;-0.31;80.99;92977.06;5008288;28;20023;-90
2023/01/27 05:49:59;;;;;;;23.50;7.80;;;;;;;-0.34;81.49;92974.22;5008109;28;20018;-89
2023/01/27 05:52:25;;;;;;;15.32;7.50;;;;;;;-0.36;81.92;92977.09;5007926;28;20324;-89
2023/01/27 05:54:50;;;;;;;16.23;7.57;;;;;;;-0.34;82.07;92977.63;5007797;28;20346;-89
2023/01/27 05:57:16;;;;;;;16.55;7.35;;;;;;;-0.28;82.25;92978.41;5007976;28;20022;-89
2023/01/27 05:59:41;;;;;;;14.23;6.80;;;;;;;-0.25;82.19;92991.72;5007964;28;20018;-89
2023/01/27 06:02:06;;;;;;;11.93;6.78;;;;;;;-0.26;82.09;92998.03;5007831;28;20018;-90
2023/01/27 06:04:32;;;;;;;12.27;7.22;;;;;;;-0.21;82.17;92998.00;5007779;28;20025;-90
2023/01/27 06:06:57;;;;;;;12.25;6.25;;;;;;;-0.16;81.76;92994.59;5007657;28;20018;-89
2023/01/27 06:09:23;;;;;;;14.13;7.22;;;;;;;-0.18;81.77;92970.50;5007451;28;20054;-89
2023/01/27 06:11:48;;;;;;;16.00;7.05;;;;;;;-0.11;81.87;92985.94;5006905;28;20046;-88
2023/01/27 06:14:14;;;;;;;12.27;6.43;;;;;;;-0.08;81.72;92980.13;5007273;28;20069;-88
2023/01/27 06:16:39;;;;;;;12.48;6.10;;;;;;;-0.02;81.31;92979.06;5007259;28;20097;-88
2023/01/27 06:19:04;;;;;;;14.27;6.65;;;;;;;-0.01;81.02;92978.03;5007067;28;20090;-89
2023/01/27 06:21:30;;;;;;;11.75;6.13;;;;;;;-0.04;80.93;92975.94;5007246;28;20331;-89
2023/01/27 06:23:56;;;;;;;10.90;5.18;;;;;;;-0.05;80.90;92987.47;5006624;28;20025;-90
2023/01/27 06:26:25;;;;;;;14.93;6.85;;;;;;;-0.04;81.27;92991.66;5007585;28;20018;-90
2023/01/27 06:28:50;;;;;;;19.45;6.95;;;;;;;-0.03;81.73;92990.59;5007043;28;20049;-87
2023/01/27 06:31:19;;;;;;;18.08;7.30;;;;;;;-0.03;81.47;92995.84;5006394;28;20022;-85
2023/01/27 06:33:44;;;;;;;17.05;7.30;;;;;;;-0.02;81.30;92997.41;5005119;28;20030;-86
2023/01/27 06:36:12;;;;;;;16.90;6.53;;;;;;;0.01;81.74;92986.41;5006499;28;20033;-86
2023/01/27 06:38:38;;;;;;;16.73;7.22;;;;;;;-0.08;82.20;92985.38;5006486;28;20260;-85
2023/01/27 06:41:03;;;;;;;13.45;6.53;;;;;;;-0.24;81.81;93000.38;5006269;28;20089;-88
2023/01/27 06:43:29;;;;;;;13.40;6.85;;;;;;;-0.25;81.57;93007.44;5005366;28;20054;-88
2023/01/27 06:45:58;;;;;;;20.17;6.90;;;;;;;-0.32;81.79;93001.72;5006716;28;20037;-89
2023/01/27 06:48:24;;;;;;;11.98;5.90;;;;;;;-0.40;81.99;93002.25;5006870;28;20331;-88
2023/01/27 06:50:51;;;;;;;12.18;6.43;;;;;;;-0.40;82.42;93007.50;5006633;28;20042;-88
2023/01/27 06:53:17;;;;;;;12.27;6.25;;;;;;;-0.37;82.42;93019.25;5006170;28;20033;-88
2023/01/27 06:55:43;;;;;;;11.70;6.30;;;;;;;-0.48;82.59;93008.03;5005908;28;20228;-86
2023/01/27 06:58:10;;;;;;;15.75;6.20;;;;;;;-0.53;82.70;93005.41;5006088;28;20041;-86
2023/01/27 07:00:37;;;;;;;18.77;7.60;;;;;;;-0.43;83.31;93015.84;5006069;28;20296;-85
2023/01/27 07:03:03;;;;;;;18.98;8.02;;;;;;;-0.32;83.70;93012.19;5005946;28;20217;-87
2023/01/27 07:05:28;;;;;;;17.85;7.95;;;;;;;-0.29;83.00;93022.09;5006161;28;20201;-87
2023/01/27 07:07:54;;;;;;;22.60;8.90;;;;;;;-0.21;83.38;93023.41;5006057;28;20092;-88
2023/01/27 07:10:19;;;;;;;18.13;7.03;;;;;;;-0.12;82.21;93028.88;5006141;28;20310;-88
2023/01/27 07:12:45;;;;;;;13.57;7.47;;;;;;;-0.06;81.70;93028.59;5006201;28;20033;-88
2023/01/27 07:15:11;;;;;;;19.45;7.93;;;;;;;-0.01;81.44;93028.56;5006051;28;20026;-88
2023/01/27 07:17:36;;;;;;;19.63;7.93;;;;;;;0.02;81.17;93022.03;5004742;28;20041;-86
2023/01/27 07:20:03;;;;;;;18.20;7.88;;;;;;;0.08;81.14;93020.97;5005477;28;20034;-87
2023/01/27 07:22:29;;;;;;;11.68;5.95;;;;;;;0.08;80.13;93017.53;5005528;28;20340;-86
2023/01/27 07:24:55;;;;;;;8.85;5.45;;;;;;;-0.06;80.06;93012.09;5005865;28;20087;-86
2023/01/27 07:27:21;;;;;;;12.02;5.70;;;;;;;-0.05;79.95;93001.34;5005575;28;20042;-86
2023/01/27 07:29:47;;;;;;;12.15;6.30;;;;;;;-0.07;80.06;93003.44;5005410;28;20073;-86
2023/01/27 07:32:12;;;;;;;11.20;5.20;;;;;;;-0.10;80.18;93005.81;5005119;28;20026;-86
2023/01/27 07:34:38;;;;;;;14.45;5.63;;;;;;;-0.14;80.69;93012.63;5005510;28;20057;-86
2023/01/27 07:37:04;;;;;;;13.13;6.40;;;;;;;-0.13;81.40;93019.47;5005539;28;20026;-90
2023/01/27 07:39:30;;;;;;;17.08;5.25;;;;;;;-0.18;80.86;93016.84;5005707;28;20031;-88
2023/01/27 07:41:57;;;;;;;9.95;5.75;;;;;;;-0.19;80.90;93021.31;5005542;28;20026;-87
2023/01/27 07:44:23;;;;;;;11.93;5.20;;;;;;;-0.16;81.17;93027.84;5005076;28;20030;-87
2023/01/27 07:46:48;;;;;;;12.88;6.07;;;;;;;-0.08;81.26;93022.03;5005483;28;20317;-84
2023/01/27 07:49:14;;;;;;;14.57;5.85;;;;;;;-0.01;81.00;93022.56;5004140;28;20065;-88
2023/01/27 07:51:39;;;;;;;14.02;5.15;;;;;;;0.04;79.80;93030.41;5005168;28;20022;-84
2023/01/27 07:54:05;;;;;;;13.88;5.35;;;;;;;0.07;80.00;93022.00;5004313;28;20106;-87
2023/01/27 07:56:31;;;;;;;16.80;6.45;;;;;;;0.10;80.38;93029.34;5006035;28;20028;-87
2023/01/27 07:58:57;;;;;;;16.77;5.82;;;;;;;0.14;79.55;93027.75;5005398;28;20093;-85
2023/01/27 08:01:22;;;;;;;14.82;6.82;;;;;;;0.19;79.47;93019.09;5004985;28;20044;-82
2023/01/27 08:03:47;;;;;;;24.02;6.90;;;;;;;0.14;79.32;93019.91;5004741;28;20026;-80
2023/01/27 08:06:13;;;;;;;12.32;6.00;;;;;;;0.13;79.60;93022.78;5004433;28;20244;-79
2023/01/27 08:08:38;;;;;;;16.75;7.35;;;;;;;0.15;80.31;93016.22;5004371;28;20025;-79
2023/01/27 08:11:09;;;;;;;11.68;6.47;;;;;;;0.18;79.67;93012.25;5004348;28;20312;-82
2023/01/27 08:13:35;;;;;;;12.35;5.43;;;;;;;0.21;80.10;93013.59;5004521;28;20018;-80
2023/01/27 08:16:04;;;;;;;11.82;6.32;;;;;;;0.26;79.63;93014.31;5004614;28;20254;-85
2023/01/27 08:18:32;;;;;;;10.15;4.88;;;;;;;0.25;78.82;93014.63;5005429;28;20022;-88
2023/01/27 08:20:59;;;;;;;13.52;6.20;;;;;;;0.22;79.05;93015.13;5002304;28;20010;-86
2023/01/27 08:23:25;;;;;;;11.15;5.00;;;;;;;0.26;78.96;93024.03;5004708;28;20321;-91
2023/01/27 08:25:51;;;;;;;16.08;5.22;;;;;;;0.27;78.82;93023.00;5003658;28;20029;-90
2023/01/27 08:28:18;;;;;;;22.55;6.82;;;;;;;0.32;78.52;93021.09;5004937;28;20137;-90
2023/01/27 08:30:45;;;;;;;15.65;6.53;;;;;;;0.32;78.56;93026.34;5004860;28;20018;-90
2023/01/27 08:33:10;;;;;;;19.80;5.60;;;;;;;0.27;78.93;93030.84;5003763;28;20022;-90
2023/01/27 08:35:38;;;;;;;19.25;5.43;;;;;;;0.15;78.48;93029.31;5004233;28;20014;-90
2023/01/27 08:38:04;;;;;;;15.52;6.30;;;;;;;0.18;78.96;93031.41;5005133;28;20050;-83
2023/01/27 08:40:30;;;;;;;14.50;4.65;;;;;;;0.25;78.62;93035.59;5003771;28;20105;-83
2023/01/27 08:42:55;;;;;;;15.00;6.43;;;;;;;0.28;78.81;93035.81;5004050;28;20030;-84
2023/01/27 08:45:21;;;;;;;23.60;6.97;;;;;;;0.38;78.81;93034.97;5003432;28;20014;-84
2023/01/27 08:47:47;;;;;;;12.48;5.97;;;;;;;0.38;78.11;93038.38;5000846;28;20018;-83
2023/01/27 08:50:12;;;;;;;15.48;6.40;;;;;;;0.35;77.55;93036.31;5002242;28;20037;-83
2023/01/27 08:52:38;;;;;;;10.60;5.55;;;;;;;0.29;77.14;93028.75;5002310;28;20027;-83
2023/01/27 08:55:04;;;;;;;11.60;5.57;;;;;;;0.26;77.10;93037.13;5002397;28;20028;-83
2023/01/27 08:57:31;;;;;;;20.08;6.97;;;;;;;0.23;77.26;93045.53;5001467;28;20049;-82
2023/01/27 08:59:57;;;;;;;10.15;4.85;;;;;;;0.18;77.07;93038.47;5002665;28;20046;-83
2023/01/27 09:02:23;;;;;;;5.93;3.55;;;;;;;0.10;77.42;93039.84;5003706;28;20042;-83
2023/01/27 09:04:49;;;;;;;9.82;4.07;;;;;;;0.07;77.08;93024.63;5003705;28;20673;-83
2023/01/27 09:07:15;;;;;;;13.75;4.32;;;;;;;0.03;77.36;93026.22;5003894;28;20034;-83
2023/01/27 09:09:40;;;;;;;9.07;4.35;;;;;;;-0.01;77.98;93033.03;5003761;28;20026;-83
2023/01/27 09:12:06;;;;;;;6.50;4.00;;;;;;;-0.03;78.39;93028.06;5003376;28;20316;-83
2023/01/27 09:14:31;;;;;;;8.45;3.20;;;;;;;-0.15;78.12;93032.03;5003708;28;20026;-85
2023/01/27 09:16:56;;;;;;;9.88;3.53;;;;;;;-0.22;78.35;93033.09;5004269;28;20050;-84
2023/01/27 09:19:22;;;;;;;14.18;4.35;;;;;;;-0.16;78.52;93026.03;5003613;28;20061;-88
2023/01/27 09:21:47;;;;;;;10.98;3.60;;;;;;;-0.13;78.69;93024.69;5003432;28;20107;-84
2023/01/27 09:24:16;;;;;;;8.35;4.22;;;;;;;-0.12;79.47;93023.63;5003388;28;20273;-83
2023/01/27 09:26:42;;;;;;;7.97;3.65;;;;;;;-0.07;79.07;93021.00;5003492;28;20033;-80
2023/01/27 09:29:07;;;;;;;5.30;3.22;;;;;;;-0.04;79.10;93017.84;5003470;28;20026;-86
2023/01/27 09:31:33;;;;;;;9.20;4.35;;;;;;;0.03;79.11;93013.13;5002438;28;20037;-88
2023/01/27 09:33:59;;;;;;;9.43;3.65;;;;;;;-0.03;79.13;93014.19;5003599;28;20348;-85
2023/01/27 09:36:26;;;;;;;10.00;4.78;;;;;;;-0.03;79.42;93011.56;5003742;28;20097;-85
2023/01/27 09:39:01;;;;;;;15.38;4.82;;;;;;;-0.02;79.97;93007.88;5003305;28;20037;-87
2023/01/27 09:41:45;;;;;;;10.45;4.63;;;;;;;-0.05;79.95;93011.06;5003356;28;20041;-85
2023/01/27 09:44:10;;;;;;;10.60;4.65;;;;;;;-0.12;80.34;93000.06;5003349;28;20022;-86
2023/01/27 09:46:47;;;;;;;14.13;5.25;;;;;;;-0.09;80.82;92994.31;5003472;28;20105;-85
2023/01/27 09:49:19;;;;;;;12.18;5.90;;;;;;;-0.13;80.13;92994.03;5003742;28;20098;-86
2023/01/27 09:52:03;;;;;;;13.15;5.55;;;;;;;-0.12;80.51;92994.81;5003454;28;20034;-86
2023/01/27 09:55:07;;;;;;;11.45;5.47;;;;;;;-0.18;81.19;92988.03;5003825;28;20025;-85
2023/01/27 09:57:56;;;;;;;15.20;6.53;;;;;;;-0.32;81.90;92975.53;4955085;28;20057;-86
2023/01/27 10:00:52;;;;;;;17.65;7.18;;;;;;;-0.32;81.84;92975.53;5004265;28;20026;-85
2023/01/27 10:03:23;;;;;;;11.85;5.95;;;;;;;-0.35;82.65;92975.25;5003532;28;20090;-86
2023/01/27 10:06:00;;;;;;;9.05;5.13;;;;;;;-0.56;83.57;92971.91;5003613;28;20026;-86
2023/01/27 10:08:47;;;;;;;7.70;3.45;;;;;;;-0.59;83.59;92969.81;5003633;28;20081;-86
2023/01/27 10:11:30;;;;;;;10.73;4.18;;;;;;;-0.64;83.77;92974.00;5003242;28;20022;-85
2023/01/27 10:14:38;;;;;;;7.88;4.50;;;;;;;-0.63;84.35;92965.13;5003493;28;20022;-85
2023/01/27 10:17:15;;;;;;;8.93;4.13;;;;;;;-0.55;84.42;92981.31;4997777;28;20030;-85
2023/01/27 10:20:05;;;;;;;12.68;5.50;;;;;;;-0.50;84.40;92976.09;5006529;28;20027;-84
2023/01/27 10:22:43;;;;;;;17.40;6.15;;;;;;;-0.45;84.31;92979.50;5006854;28;20030;-84
2023/01/27 10:25:27;;;;;;;15.57;7.72;;;;;;;-0.42;84.11;92972.94;5006672;28;20225;-85
2023/01/27 10:27:56;;;;;;;13.13;6.35;;;;;;;-0.42;84.33;92972.94;5006642;28;20216;-85
2023/01/27 10:30:31;;;;;;;11.73;6.05;;;;;;;-0.49;84.71;92973.22;5006646;28;20125;-85
2023/01/27 10:33:03;;;;;;;9.85;5.35;;;;;;;-0.49;84.32;92969.78;5008361;28;20388;-84
2023/01/27 10:35:35;;;;;;;11.95;5.60;;;;;;;-0.51;84.42;92959.59;5007801;28;20054;-85
2023/01/27 10:38:07;;;;;;;17.25;6.35;;;;;;;-0.46;84.38;92971.91;5006958;28;20097;-85
2023/01/27 10:40:41;;;;;;;13.68;5.65;;;;;;;-0.36;84.60;92976.31;5012348;28;20057;-86
2023/01/27 10:43:20;;;;;;;12.52;4.97;;;;;;;-0.44;83.84;92972.41;5012474;28;20022;-85
2023/01/27 10:45:57;;;;;;;13.07;4.47;;;;;;;-0.42;83.38;92963.22;5013365;28;20026;-85
2023/01/27 10:48:53;;;;;;;10.90;4.88;;;;;;;-0.37;83.85;92961.66;5007863;28;20038;-86
2023/01/27 10:51:32;;;;;;;14.13;6.63;;;;;;;-0.37;84.44;92965.03;5006296;28;20109;-86
2023/01/27 10:54:06;;;;;;;11.85;5.85;;;;;;;-0.31;84.40;92969.22;5006520;28;20025;-85
2023/01/27 10:56:59;;;;;;;12.05;5.55;;;;;;;-0.34;83.17;92967.16;5006281;28;20029;-85
2023/01/27 10:59:46;;;;;;;26.73;6.28;;;;;;;-0.35;83.44;92973.41;5006913;28;20026;-87
2023/01/27 11:02:30;;;;;;;12.63;6.22;;;;;;;-0.35;84.01;92960.31;5006603;28;20295;-87
2023/01/27 11:05:00;;;;;;;10.43;5.28;;;;;;;-0.34;84.56;92972.38;5006000;28;20026;-87
2023/01/27 11:07:26;;;;;;;10.50;6.10;;;;;;;-0.42;84.38;92972.94;5004810;28;20033;-82
2023/01/27 11:09:58;;;;;;;11.13;5.45;;;;;;;-0.39;84.99;92963.75;5006152;28;20221;-85
2023/01/27 11:12:48;;;;;;;10.50;5.13;;;;;;;-0.39;85.11;92969.75;5004674;28;20026;-85
2023/01/27 11:15:34;;;;;;;16.92;5.72;;;;;;;-0.43;85.37;92942.56;5006070;28;20022;-85
2023/01/27 11:18:18;;;;;;;14.13;5.20;;;;;;;-0.38;85.46;92955.63;5005911;28;20324;-85
2023/01/27 11:20:54;;;;;;;11.65;5.50;;;;;;;-0.37;84.41;92954.56;5005737;28;20288;-85
2023/01/27 11:24:00;;;;;;;18.55;7.10;;;;;;;-0.49;84.33;92954.91;5004616;28;20034;-88
2023/01/27 11:27:06;;;;;;;;;;;;;;;;;;;;;
2023/01/27 11:29:41;;;;;;;20.88;7.07;;;;;;;-0.56;85.28;92943.91;5003493;28;20072;-86
2023/01/27 11:32:22;;;;;;;15.75;6.53;;;;;;;-0.72;85.49;92945.78;5005293;28;20359;-86
2023/01/27 11:35:11;;;;;;;15.38;6.47;;;;;;;-0.83;85.64;92936.38;5005537;28;20018;-86
2023/01/27 11:37:47;;;;;;;18.52;6.50;;;;;;;-0.84;86.12;92945.28;5005185;28;20049;-85
2023/01/27 11:40:13;;;;;;;16.08;6.50;;;;;;;-0.84;86.33;92946.03;5004468;28;20050;-86
2023/01/27 11:42:39;;;;;;;12.23;5.70;;;;;;;-0.85;86.75;92935.88;5005487;28;20026;-86
2023/01/27 11:45:05;;;;;;;11.00;5.72;;;;;;;-0.79;86.26;92939.22;5005301;28;20022;-86
2023/01/27 11:47:38;;;;;;;16.20;6.82;;;;;;;-0.76;86.43;92936.88;5005162;28;20029;-86
2023/01/27 11:50:04;;;;;;;20.77;6.55;;;;;;;-0.67;86.13;92932.69;5005390;28;20069;-86
2023/01/27 11:52:30;;;;;;;13.80;5.70;;;;;;;-0.69;85.35;92929.56;5004901;28;20029;-85
2023/01/27 11:55:24;;;;;;;10.07;5.78;;;;;;;-0.78;85.76;92936.38;5005214;28;20018;-86
2023/01/27 11:58:11;;;;;;;9.77;5.22;;;;;;;-0.87;86.21;92932.72;5004740;28;20340;-86
2023/01/27 12:00:45;;;;;;;10.20;5.13;;;;;;;-0.84;86.59;92930.34;5004923;28;20332;-86
2023/01/27 12:03:23;;;;;;;15.75;6.40;;;;;;;-0.75;86.15;92930.63;5004899;28;20022;-86
2023/01/27 12:06:01;;;;;;;14.05;5.75;;;;;;;-0.69;86.22;92934.78;5005017;28;20224;-86
2023/01/27 12:08:35;;;;;;;14.57;5.57;;;;;;;-0.69;86.14;92934.78;5005010;28;20026;-86